createdAt,value
2023-03-21T00:06:04.486Z,9.5
2023-03-21T00:16:09.969Z,9.5
2023-03-21T00:26:05.748Z,9.5
2023-03-21T00:36:06.828Z,9.6
2023-03-21T00:46:07.263Z,9.6
2023-03-21T00:56:07.707Z,9.7
2023-03-21T01:06:15.630Z,9.6
2023-03-21T01:16:16.533Z,9.7
2023-03-21T01:36:13.354Z,9.8
2023-03-21T01:46:11.266Z,9.8
2023-03-21T01:56:11.803Z,9.7
2023-03-21T02:06:12.035Z,9.6
2023-03-21T02:16:12.314Z,9.5
2023-03-21T02:26:12.676Z,9.5
2023-03-21T02:36:20.289Z,9.5
2023-03-21T02:46:14.057Z,9.5
2023-03-21T02:56:14.581Z,9.5
2023-03-21T03:06:22.345Z,9.5
2023-03-21T03:26:16.133Z,9.3
2023-03-21T03:46:24.252Z,9.2
2023-03-21T04:06:18.270Z,9.2
2023-03-21T04:16:18.974Z,9.1
2023-03-21T04:26:18.910Z,9.1
2023-03-21T04:36:19.390Z,9
2023-03-21T04:56:20.085Z,8.9
2023-03-21T05:06:20.187Z,8.9
2023-03-21T05:16:27.631Z,9
2023-03-21T05:26:28.079Z,9
2023-03-21T05:36:21.363Z,9.1
2023-03-21T05:46:21.726Z,9.2
2023-03-21T05:56:22.051Z,9.2
2023-03-21T06:06:22.576Z,9.3
2023-03-21T06:16:23.032Z,9.2
2023-03-21T06:26:23.449Z,9
2023-03-21T06:36:31.253Z,9
2023-03-21T06:46:24.680Z,8.9
2023-03-21T06:56:25.646Z,8.9
2023-03-21T07:06:32.931Z,8.9
2023-03-21T07:16:26.134Z,9
2023-03-21T07:26:26.379Z,9
2023-03-21T07:56:27.902Z,9.1
2023-03-21T08:06:28.961Z,9.3
2023-03-21T08:26:30.551Z,9.6
2023-03-21T08:46:32.081Z,10
2023-03-21T09:06:33.040Z,10.3
2023-03-21T09:26:34.099Z,10.4
2023-03-21T09:46:34.970Z,10.5
2023-03-21T09:56:35.370Z,10.3
2023-03-21T10:06:35.985Z,10.2
2023-03-21T10:36:37.647Z,10.9
2023-03-21T10:46:38.070Z,10.9
2023-03-21T10:56:37.874Z,11.2
2023-03-21T11:06:38.914Z,11.2
2023-03-21T11:17:18.673Z,11
2023-03-21T11:36:39.669Z,11.3
2023-03-21T11:46:40.124Z,11.5
2023-03-21T11:56:40.718Z,11.6
2023-03-21T12:06:41.059Z,11.7
2023-03-21T12:16:48.251Z,12.1
2023-03-21T12:26:41.433Z,12.4
2023-03-21T12:36:42.074Z,12.3
2023-03-21T12:46:42.174Z,12.4
2023-03-21T12:56:42.646Z,12.5
2023-03-21T13:06:43.343Z,12.4
2023-03-21T13:16:44.313Z,12.1
2023-03-21T13:26:44.425Z,12.1
2023-03-21T13:27:25.627Z,12.1
2023-03-21T13:46:58.698Z,11.8
2023-03-21T13:57:01.105Z,11.7
2023-03-21T14:06:59.548Z,11.8
2023-03-21T14:17:06.767Z,11.9
2023-03-21T14:27:00.466Z,12
2023-03-21T14:47:08.339Z,12.1
2023-03-21T14:57:41.799Z,12.3
2023-03-21T15:07:02.912Z,12.3
2023-03-21T15:17:42.834Z,12.3
2023-03-21T15:27:03.509Z,12.2
2023-03-21T15:37:04.442Z,12.4
2023-03-21T15:47:45.066Z,12.7
2023-03-21T15:57:06.067Z,12.4
2023-03-21T16:07:06.664Z,12.2
2023-03-21T16:27:07.877Z,12.7
2023-03-21T16:37:08.142Z,12.6
2023-03-21T16:47:08.681Z,12.5
2023-03-21T16:57:08.778Z,12.5
2023-03-21T17:07:08.984Z,12.5
2023-03-21T17:17:16.497Z,12.5
2023-03-21T17:27:09.916Z,12.4
2023-03-21T17:37:10.250Z,12.3
2023-03-21T17:47:11.113Z,12.2
2023-03-21T17:57:18.562Z,12.2
2023-03-21T18:07:28.247Z,12.2
2023-03-21T18:17:19.716Z,12.1
2023-03-21T18:27:20.007Z,12
2023-03-21T18:47:13.597Z,11.6
2023-03-21T18:57:34.928Z,11.5
2023-03-21T19:27:18.104Z,11.5
2023-03-21T19:37:15.927Z,11.1
2023-03-21T19:57:25.006Z,10.9
2023-03-21T20:07:17.894Z,11
2023-03-21T20:17:25.905Z,11
2023-03-21T20:27:19.109Z,11
2023-03-21T20:37:27.102Z,11
2023-03-21T20:47:27.636Z,11.1
2023-03-21T20:57:21.462Z,11
2023-03-21T21:07:21.901Z,10.8
2023-03-21T21:17:35.132Z,10.6
2023-03-21T21:27:30.713Z,10.4
2023-03-21T21:37:24.574Z,10.3
2023-03-21T21:47:32.296Z,10.2
2023-03-21T21:57:26.010Z,10.2
2023-03-21T22:07:26.722Z,10.5
2023-03-21T22:27:27.585Z,10.6
2023-03-21T22:37:35.110Z,10.5
2023-03-21T22:57:36.083Z,10.6
2023-03-21T23:08:13.595Z,10.9
2023-03-21T23:17:30.552Z,11.2
2023-03-21T23:27:30.977Z,11.5
2023-03-21T23:37:38.670Z,11.5
2023-03-21T23:47:31.759Z,11.4
2023-03-21T23:57:32.348Z,11.3
